sensor_id;sensor_type;location;lat;lon;timestamp;P1;durP1;ratioP1;P2;durP2;ratioP2
48487;SDS011;34289;48.572;13.378;2023-09-19T00:00:30;2.85;;;1.40;;
48487;SDS011;34289;48.572;13.378;2023-09-19T00:02:57;5.60;;;1.30;;
48487;SDS011;34289;48.572;13.378;2023-09-19T00:05:26;3.95;;;1.40;;
48487;SDS011;34289;48.572;13.378;2023-09-19T00:07:53;5.45;;;1.30;;
48487;SDS011;34289;48.572;13.378;2023-09-19T00:10:23;6.75;;;1.20;;
48487;SDS011;34289;48.572;13.378;2023-09-19T00:12:58;4.85;;;1.20;;
48487;SDS011;34289;48.572;13.378;2023-09-19T00:15:24;5.97;;;1.13;;
48487;SDS011;34289;48.572;13.378;2023-09-19T00:17:53;3.88;;;1.20;;
48487;SDS011;34289;48.572;13.378;2023-09-19T00:20:20;4.95;;;1.17;;
48487;SDS011;34289;48.572;13.378;2023-09-19T00:22:48;2.78;;;1.02;;
48487;SDS011;34289;48.572;13.378;2023-09-19T00:25:17;6.82;;;1.40;;
48487;SDS011;34289;48.572;13.378;2023-09-19T00:27:43;6.18;;;1.20;;
48487;SDS011;34289;48.572;13.378;2023-09-19T00:30:10;3.95;;;1.40;;
48487;SDS011;34289;48.572;13.378;2023-09-19T00:32:41;3.42;;;1.25;;
48487;SDS011;34289;48.572;13.378;2023-09-19T00:35:07;2.60;;;1.33;;
48487;SDS011;34289;48.572;13.378;2023-09-19T00:37:34;4.85;;;1.00;;
48487;SDS011;34289;48.572;13.378;2023-09-19T00:40:01;7.70;;;1.30;;
48487;SDS011;34289;48.572;13.378;2023-09-19T00:42:28;6.82;;;1.70;;
48487;SDS011;34289;48.572;13.378;2023-09-19T00:44:53;2.72;;;1.17;;
48487;SDS011;34289;48.572;13.378;2023-09-19T00:47:19;6.28;;;1.02;;
48487;SDS011;34289;48.572;13.378;2023-09-19T00:49:45;3.67;;;1.20;;
48487;SDS011;34289;48.572;13.378;2023-09-19T00:52:14;9.02;;;2.30;;
48487;SDS011;34289;48.572;13.378;2023-09-19T00:54:40;2.03;;;1.20;;
48487;SDS011;34289;48.572;13.378;2023-09-19T00:57:06;4.40;;;1.00;;
48487;SDS011;34289;48.572;13.378;2023-09-19T00:59:33;3.15;;;1.25;;
48487;SDS011;34289;48.572;13.378;2023-09-19T01:02:00;5.47;;;1.48;;
48487;SDS011;34289;48.572;13.378;2023-09-19T01:04:27;2.65;;;1.17;;
48487;SDS011;34289;48.572;13.378;2023-09-19T01:06:53;2.08;;;1.25;;
48487;SDS011;34289;48.572;13.378;2023-09-19T01:09:19;3.13;;;1.10;;
48487;SDS011;34289;48.572;13.378;2023-09-19T01:11:47;7.13;;;1.30;;
48487;SDS011;34289;48.572;13.378;2023-09-19T01:14:29;2.65;;;1.63;;
48487;SDS011;34289;48.572;13.378;2023-09-19T01:17:19;3.80;;;1.20;;
48487;SDS011;34289;48.572;13.378;2023-09-19T01:22:31;5.20;;;1.47;;
48487;SDS011;34289;48.572;13.378;2023-09-19T01:25:19;4.78;;;1.30;;
48487;SDS011;34289;48.572;13.378;2023-09-19T01:28:20;4.65;;;1.30;;
48487;SDS011;34289;48.572;13.378;2023-09-19T01:30:52;4.90;;;1.70;;
48487;SDS011;34289;48.572;13.378;2023-09-19T01:33:24;9.35;;;1.55;;
48487;SDS011;34289;48.572;13.378;2023-09-19T01:35:50;3.75;;;1.48;;
48487;SDS011;34289;48.572;13.378;2023-09-19T01:38:17;3.58;;;1.45;;
48487;SDS011;34289;48.572;13.378;2023-09-19T01:40:46;4.13;;;1.30;;
48487;SDS011;34289;48.572;13.378;2023-09-19T01:43:28;3.72;;;1.27;;
48487;SDS011;34289;48.572;13.378;2023-09-19T01:46:14;2.38;;;1.00;;
48487;SDS011;34289;48.572;13.378;2023-09-19T01:48:54;7.70;;;1.40;;
48487;SDS011;34289;48.572;13.378;2023-09-19T01:51:51;7.53;;;1.92;;
48487;SDS011;34289;48.572;13.378;2023-09-19T01:54:33;5.32;;;1.20;;
48487;SDS011;34289;48.572;13.378;2023-09-19T01:57:08;11.05;;;1.67;;
48487;SDS011;34289;48.572;13.378;2023-09-19T01:59:43;7.68;;;1.83;;
48487;SDS011;34289;48.572;13.378;2023-09-19T02:02:17;20.08;;;2.60;;
48487;SDS011;34289;48.572;13.378;2023-09-19T02:04:46;36.58;;;2.40;;
48487;SDS011;34289;48.572;13.378;2023-09-19T02:07:13;24.27;;;3.17;;
48487;SDS011;34289;48.572;13.378;2023-09-19T02:09:41;39.95;;;3.33;;
48487;SDS011;34289;48.572;13.378;2023-09-19T02:12:08;19.67;;;3.50;;
48487;SDS011;34289;48.572;13.378;2023-09-19T02:14:34;25.00;;;2.90;;
48487;SDS011;34289;48.572;13.378;2023-09-19T02:17:01;10.82;;;2.22;;
48487;SDS011;34289;48.572;13.378;2023-09-19T02:19:36;22.92;;;2.60;;
48487;SDS011;34289;48.572;13.378;2023-09-19T02:22:04;9.05;;;2.60;;
48487;SDS011;34289;48.572;13.378;2023-09-19T02:24:35;16.08;;;2.83;;
48487;SDS011;34289;48.572;13.378;2023-09-19T02:27:01;24.50;;;4.15;;
48487;SDS011;34289;48.572;13.378;2023-09-19T02:29:29;17.77;;;2.65;;
48487;SDS011;34289;48.572;13.378;2023-09-19T02:31:55;24.90;;;2.53;;
48487;SDS011;34289;48.572;13.378;2023-09-19T02:34:21;12.70;;;2.92;;
48487;SDS011;34289;48.572;13.378;2023-09-19T02:36:47;18.23;;;3.95;;
48487;SDS011;34289;48.572;13.378;2023-09-19T02:39:12;22.50;;;5.15;;
48487;SDS011;34289;48.572;13.378;2023-09-19T02:41:38;43.08;;;5.53;;
48487;SDS011;34289;48.572;13.378;2023-09-19T02:44:04;35.97;;;5.47;;
48487;SDS011;34289;48.572;13.378;2023-09-19T02:46:33;22.75;;;4.80;;
48487;SDS011;34289;48.572;13.378;2023-09-19T02:48:59;20.23;;;4.63;;
48487;SDS011;34289;48.572;13.378;2023-09-19T02:51:25;25.63;;;3.22;;
48487;SDS011;34289;48.572;13.378;2023-09-19T02:53:51;45.10;;;3.78;;
48487;SDS011;34289;48.572;13.378;2023-09-19T02:56:19;27.15;;;3.38;;
48487;SDS011;34289;48.572;13.378;2023-09-19T02:58:45;33.42;;;3.60;;
48487;SDS011;34289;48.572;13.378;2023-09-19T03:01:11;28.55;;;3.70;;
48487;SDS011;34289;48.572;13.378;2023-09-19T03:03:37;33.30;;;3.88;;
48487;SDS011;34289;48.572;13.378;2023-09-19T03:06:04;42.42;;;4.32;;
48487;SDS011;34289;48.572;13.378;2023-09-19T03:08:31;22.42;;;4.07;;
48487;SDS011;34289;48.572;13.378;2023-09-19T03:11:03;22.75;;;4.22;;
48487;SDS011;34289;48.572;13.378;2023-09-19T03:13:30;28.30;;;3.83;;
48487;SDS011;34289;48.572;13.378;2023-09-19T03:15:57;17.80;;;3.72;;
48487;SDS011;34289;48.572;13.378;2023-09-19T03:18:23;12.63;;;4.13;;
48487;SDS011;34289;48.572;13.378;2023-09-19T03:20:54;11.90;;;3.65;;
48487;SDS011;34289;48.572;13.378;2023-09-19T03:23:25;7.30;;;3.20;;
48487;SDS011;34289;48.572;13.378;2023-09-19T03:25:51;14.02;;;4.03;;
48487;SDS011;34289;48.572;13.378;2023-09-19T03:28:17;5.22;;;3.60;;
48487;SDS011;34289;48.572;13.378;2023-09-19T03:30:43;8.77;;;3.50;;
48487;SDS011;34289;48.572;13.378;2023-09-19T03:33:09;6.32;;;3.85;;
48487;SDS011;34289;48.572;13.378;2023-09-19T03:35:37;5.35;;;3.28;;
48487;SDS011;34289;48.572;13.378;2023-09-19T03:38:04;5.45;;;3.30;;
48487;SDS011;34289;48.572;13.378;2023-09-19T03:40:30;5.85;;;3.55;;
48487;SDS011;34289;48.572;13.378;2023-09-19T03:42:56;4.60;;;3.05;;
48487;SDS011;34289;48.572;13.378;2023-09-19T03:45:21;7.57;;;3.20;;
48487;SDS011;34289;48.572;13.378;2023-09-19T03:47:47;6.53;;;2.85;;
48487;SDS011;34289;48.572;13.378;2023-09-19T03:50:13;15.20;;;3.15;;
48487;SDS011;34289;48.572;13.378;2023-09-19T03:52:43;4.40;;;2.30;;
48487;SDS011;34289;48.572;13.378;2023-09-19T03:55:09;8.80;;;3.13;;
48487;SDS011;34289;48.572;13.378;2023-09-19T03:57:35;4.80;;;2.65;;
48487;SDS011;34289;48.572;13.378;2023-09-19T04:00:02;4.05;;;2.95;;
48487;SDS011;34289;48.572;13.378;2023-09-19T04:02:29;4.75;;;2.60;;
48487;SDS011;34289;48.572;13.378;2023-09-19T04:04:58;4.88;;;2.83;;
48487;SDS011;34289;48.572;13.378;2023-09-19T04:07:24;3.83;;;2.40;;
48487;SDS011;34289;48.572;13.378;2023-09-19T04:09:53;4.70;;;2.28;;
48487;SDS011;34289;48.572;13.378;2023-09-19T04:12:20;6.15;;;2.30;;
48487;SDS011;34289;48.572;13.378;2023-09-19T04:14:45;2.50;;;1.80;;
48487;SDS011;34289;48.572;13.378;2023-09-19T04:17:11;3.38;;;1.67;;
48487;SDS011;34289;48.572;13.378;2023-09-19T04:19:36;4.47;;;1.80;;
48487;SDS011;34289;48.572;13.378;2023-09-19T04:22:02;9.63;;;2.08;;
48487;SDS011;34289;48.572;13.378;2023-09-19T04:24:29;5.20;;;1.70;;
48487;SDS011;34289;48.572;13.378;2023-09-19T04:26:55;6.50;;;1.77;;
48487;SDS011;34289;48.572;13.378;2023-09-19T04:29:22;3.20;;;1.58;;
48487;SDS011;34289;48.572;13.378;2023-09-19T04:31:47;4.35;;;2.00;;
48487;SDS011;34289;48.572;13.378;2023-09-19T04:34:13;6.13;;;2.58;;
48487;SDS011;34289;48.572;13.378;2023-09-19T04:36:42;6.93;;;2.10;;
48487;SDS011;34289;48.572;13.378;2023-09-19T04:39:08;3.33;;;2.05;;
48487;SDS011;34289;48.572;13.378;2023-09-19T04:41:36;2.95;;;2.17;;
48487;SDS011;34289;48.572;13.378;2023-09-19T04:44:06;4.25;;;2.15;;
48487;SDS011;34289;48.572;13.378;2023-09-19T04:46:32;4.50;;;2.13;;
48487;SDS011;34289;48.572;13.378;2023-09-19T04:48:58;5.03;;;2.10;;
48487;SDS011;34289;48.572;13.378;2023-09-19T04:51:24;4.53;;;1.65;;
48487;SDS011;34289;48.572;13.378;2023-09-19T04:53:51;7.32;;;2.53;;
48487;SDS011;34289;48.572;13.378;2023-09-19T04:56:17;3.25;;;2.00;;
48487;SDS011;34289;48.572;13.378;2023-09-19T04:58:44;2.97;;;1.88;;
48487;SDS011;34289;48.572;13.378;2023-09-19T05:01:09;4.57;;;2.63;;
48487;SDS011;34289;48.572;13.378;2023-09-19T05:03:37;4.97;;;1.60;;
48487;SDS011;34289;48.572;13.378;2023-09-19T05:06:03;13.57;;;1.92;;
48487;SDS011;34289;48.572;13.378;2023-09-19T05:08:30;4.30;;;1.40;;
48487;SDS011;34289;48.572;13.378;2023-09-19T05:10:55;3.95;;;2.40;;
48487;SDS011;34289;48.572;13.378;2023-09-19T05:13:21;3.03;;;1.63;;
48487;SDS011;34289;48.572;13.378;2023-09-19T05:15:49;3.35;;;1.45;;
48487;SDS011;34289;48.572;13.378;2023-09-19T05:18:17;4.47;;;1.88;;
48487;SDS011;34289;48.572;13.378;2023-09-19T05:20:43;4.50;;;1.60;;
48487;SDS011;34289;48.572;13.378;2023-09-19T05:23:09;3.95;;;1.67;;
48487;SDS011;34289;48.572;13.378;2023-09-19T05:25:36;3.22;;;1.40;;
48487;SDS011;34289;48.572;13.378;2023-09-19T05:28:03;2.85;;;1.67;;
48487;SDS011;34289;48.572;13.378;2023-09-19T05:30:30;3.22;;;1.75;;
48487;SDS011;34289;48.572;13.378;2023-09-19T05:32:57;8.05;;;1.48;;
48487;SDS011;34289;48.572;13.378;2023-09-19T05:35:23;2.90;;;1.70;;
48487;SDS011;34289;48.572;13.378;2023-09-19T05:37:52;3.38;;;1.63;;
48487;SDS011;34289;48.572;13.378;2023-09-19T05:40:19;3.80;;;1.75;;
48487;SDS011;34289;48.572;13.378;2023-09-19T05:42:45;4.13;;;1.73;;
48487;SDS011;34289;48.572;13.378;2023-09-19T05:45:11;4.13;;;1.50;;
48487;SDS011;34289;48.572;13.378;2023-09-19T05:47:39;1.73;;;1.42;;
48487;SDS011;34289;48.572;13.378;2023-09-19T05:50:06;2.50;;;1.40;;
48487;SDS011;34289;48.572;13.378;2023-09-19T05:52:33;4.10;;;1.55;;
48487;SDS011;34289;48.572;13.378;2023-09-19T05:55:00;2.80;;;1.80;;
48487;SDS011;34289;48.572;13.378;2023-09-19T05:57:25;2.38;;;1.30;;
48487;SDS011;34289;48.572;13.378;2023-09-19T05:59:52;2.03;;;1.50;;
48487;SDS011;34289;48.572;13.378;2023-09-19T06:02:18;3.28;;;1.73;;
48487;SDS011;34289;48.572;13.378;2023-09-19T06:04:44;2.83;;;1.60;;
48487;SDS011;34289;48.572;13.378;2023-09-19T06:07:10;2.10;;;1.40;;
48487;SDS011;34289;48.572;13.378;2023-09-19T06:09:36;2.47;;;1.83;;
48487;SDS011;34289;48.572;13.378;2023-09-19T06:12:01;4.18;;;1.80;;
48487;SDS011;34289;48.572;13.378;2023-09-19T06:14:28;3.67;;;1.58;;
48487;SDS011;34289;48.572;13.378;2023-09-19T06:16:54;7.22;;;1.65;;
48487;SDS011;34289;48.572;13.378;2023-09-19T06:19:20;3.03;;;1.45;;
48487;SDS011;34289;48.572;13.378;2023-09-19T06:21:48;3.55;;;1.75;;
48487;SDS011;34289;48.572;13.378;2023-09-19T06:24:14;3.10;;;1.55;;
48487;SDS011;34289;48.572;13.378;2023-09-19T06:26:40;2.10;;;1.60;;
48487;SDS011;34289;48.572;13.378;2023-09-19T06:29:05;3.53;;;1.75;;
48487;SDS011;34289;48.572;13.378;2023-09-19T06:31:35;7.57;;;1.70;;
48487;SDS011;34289;48.572;13.378;2023-09-19T06:34:00;4.43;;;1.60;;
48487;SDS011;34289;48.572;13.378;2023-09-19T06:36:26;2.60;;;1.52;;
48487;SDS011;34289;48.572;13.378;2023-09-19T06:38:51;4.50;;;1.50;;
48487;SDS011;34289;48.572;13.378;2023-09-19T06:41:17;6.97;;;1.70;;
48487;SDS011;34289;48.572;13.378;2023-09-19T06:43:43;2.97;;;1.60;;
48487;SDS011;34289;48.572;13.378;2023-09-19T06:46:09;2.92;;;1.52;;
48487;SDS011;34289;48.572;13.378;2023-09-19T06:48:34;3.25;;;1.30;;
48487;SDS011;34289;48.572;13.378;2023-09-19T06:51:00;3.05;;;1.52;;
48487;SDS011;34289;48.572;13.378;2023-09-19T06:53:27;4.63;;;1.65;;
48487;SDS011;34289;48.572;13.378;2023-09-19T06:55:56;2.63;;;1.30;;
48487;SDS011;34289;48.572;13.378;2023-09-19T06:58:22;4.95;;;1.45;;
48487;SDS011;34289;48.572;13.378;2023-09-19T07:00:48;5.28;;;1.50;;
48487;SDS011;34289;48.572;13.378;2023-09-19T07:03:15;3.83;;;1.30;;
48487;SDS011;34289;48.572;13.378;2023-09-19T07:05:43;4.13;;;1.25;;
48487;SDS011;34289;48.572;13.378;2023-09-19T07:08:09;3.10;;;1.33;;
48487;SDS011;34289;48.572;13.378;2023-09-19T07:10:37;3.88;;;1.73;;
48487;SDS011;34289;48.572;13.378;2023-09-19T07:13:06;2.08;;;1.23;;
48487;SDS011;34289;48.572;13.378;2023-09-19T07:15:36;2.63;;;1.35;;
48487;SDS011;34289;48.572;13.378;2023-09-19T07:18:04;2.25;;;1.45;;
48487;SDS011;34289;48.572;13.378;2023-09-19T07:20:31;3.95;;;1.48;;
48487;SDS011;34289;48.572;13.378;2023-09-19T07:22:58;2.72;;;1.48;;
48487;SDS011;34289;48.572;13.378;2023-09-19T07:25:29;7.63;;;1.70;;
48487;SDS011;34289;48.572;13.378;2023-09-19T07:27:56;4.78;;;1.40;;
48487;SDS011;34289;48.572;13.378;2023-09-19T07:30:24;3.55;;;1.30;;
48487;SDS011;34289;48.572;13.378;2023-09-19T07:32:51;2.22;;;1.58;;
48487;SDS011;34289;48.572;13.378;2023-09-19T07:35:17;4.75;;;1.90;;
48487;SDS011;34289;48.572;13.378;2023-09-19T07:37:45;5.72;;;1.60;;
48487;SDS011;34289;48.572;13.378;2023-09-19T07:40:14;5.00;;;1.65;;
48487;SDS011;34289;48.572;13.378;2023-09-19T07:42:40;1.58;;;1.00;;
48487;SDS011;34289;48.572;13.378;2023-09-19T07:45:07;6.03;;;1.80;;
48487;SDS011;34289;48.572;13.378;2023-09-19T07:47:33;3.00;;;1.42;;
48487;SDS011;34289;48.572;13.378;2023-09-19T07:50:01;4.47;;;2.20;;
48487;SDS011;34289;48.572;13.378;2023-09-19T07:52:28;3.53;;;2.20;;
48487;SDS011;34289;48.572;13.378;2023-09-19T07:54:54;3.65;;;1.80;;
48487;SDS011;34289;48.572;13.378;2023-09-19T07:57:20;5.90;;;2.42;;
48487;SDS011;34289;48.572;13.378;2023-09-19T07:59:45;6.00;;;2.25;;
48487;SDS011;34289;48.572;13.378;2023-09-19T08:02:11;5.18;;;2.00;;
48487;SDS011;34289;48.572;13.378;2023-09-19T08:04:44;1.75;;;1.55;;
48487;SDS011;34289;48.572;13.378;2023-09-19T08:07:14;4.38;;;1.73;;
48487;SDS011;34289;48.572;13.378;2023-09-19T08:09:40;2.50;;;1.55;;
48487;SDS011;34289;48.572;13.378;2023-09-19T08:12:06;2.67;;;1.23;;
48487;SDS011;34289;48.572;13.378;2023-09-19T08:14:35;1.88;;;1.48;;
48487;SDS011;34289;48.572;13.378;2023-09-19T08:17:03;5.43;;;2.42;;
48487;SDS011;34289;48.572;13.378;2023-09-19T08:19:30;3.03;;;1.35;;
48487;SDS011;34289;48.572;13.378;2023-09-19T08:22:00;6.05;;;1.48;;
48487;SDS011;34289;48.572;13.378;2023-09-19T08:24:29;3.05;;;1.60;;
48487;SDS011;34289;48.572;13.378;2023-09-19T08:26:55;3.50;;;1.65;;
48487;SDS011;34289;48.572;13.378;2023-09-19T08:29:21;2.92;;;1.88;;
48487;SDS011;34289;48.572;13.378;2023-09-19T08:31:53;3.40;;;1.73;;
48487;SDS011;34289;48.572;13.378;2023-09-19T08:34:20;4.18;;;1.30;;
48487;SDS011;34289;48.572;13.378;2023-09-19T08:36:46;2.67;;;1.55;;
48487;SDS011;34289;48.572;13.378;2023-09-19T08:39:13;2.25;;;1.48;;
48487;SDS011;34289;48.572;13.378;2023-09-19T08:41:39;4.18;;;1.20;;
48487;SDS011;34289;48.572;13.378;2023-09-19T08:44:05;1.83;;;1.30;;
48487;SDS011;34289;48.572;13.378;2023-09-19T08:46:30;5.45;;;1.25;;
48487;SDS011;34289;48.572;13.378;2023-09-19T08:49:04;3.88;;;1.58;;
48487;SDS011;34289;48.572;13.378;2023-09-19T08:51:33;2.13;;;1.27;;
48487;SDS011;34289;48.572;13.378;2023-09-19T08:54:32;4.90;;;2.17;;
48487;SDS011;34289;48.572;13.378;2023-09-19T08:57:00;3.05;;;1.80;;
48487;SDS011;34289;48.572;13.378;2023-09-19T08:59:37;3.03;;;1.40;;
48487;SDS011;34289;48.572;13.378;2023-09-19T09:02:08;4.28;;;2.17;;
48487;SDS011;34289;48.572;13.378;2023-09-19T09:04:39;4.40;;;1.45;;
48487;SDS011;34289;48.572;13.378;2023-09-19T09:07:09;4.53;;;1.92;;
48487;SDS011;34289;48.572;13.378;2023-09-19T09:09:39;2.65;;;1.63;;
48487;SDS011;34289;48.572;13.378;2023-09-19T09:12:11;2.10;;;1.30;;
48487;SDS011;34289;48.572;13.378;2023-09-19T09:14:39;2.88;;;1.60;;
48487;SDS011;34289;48.572;13.378;2023-09-19T09:17:17;6.13;;;2.25;;
48487;SDS011;34289;48.572;13.378;2023-09-19T09:19:45;4.03;;;1.55;;
48487;SDS011;34289;48.572;13.378;2023-09-19T09:22:11;4.70;;;1.60;;
48487;SDS011;34289;48.572;13.378;2023-09-19T09:24:37;3.30;;;1.48;;
48487;SDS011;34289;48.572;13.378;2023-09-19T09:27:15;2.63;;;1.45;;
48487;SDS011;34289;48.572;13.378;2023-09-19T09:29:46;2.72;;;1.60;;
48487;SDS011;34289;48.572;13.378;2023-09-19T09:32:21;2.30;;;1.35;;
48487;SDS011;34289;48.572;13.378;2023-09-19T09:34:58;3.80;;;1.70;;
48487;SDS011;34289;48.572;13.378;2023-09-19T09:37:25;1.83;;;1.17;;
48487;SDS011;34289;48.572;13.378;2023-09-19T09:39:54;2.42;;;1.58;;
48487;SDS011;34289;48.572;13.378;2023-09-19T09:42:35;3.95;;;1.60;;
48487;SDS011;34289;48.572;13.378;2023-09-19T09:45:13;4.03;;;1.67;;
48487;SDS011;34289;48.572;13.378;2023-09-19T09:47:44;4.50;;;1.40;;
48487;SDS011;34289;48.572;13.378;2023-09-19T09:50:29;3.42;;;2.08;;
48487;SDS011;34289;48.572;13.378;2023-09-19T09:53:25;2.03;;;1.65;;
48487;SDS011;34289;48.572;13.378;2023-09-19T09:58:34;3.75;;;1.33;;
48487;SDS011;34289;48.572;13.378;2023-09-19T10:01:24;1.90;;;1.42;;
48487;SDS011;34289;48.572;13.378;2023-09-19T10:03:56;3.10;;;1.27;;
48487;SDS011;34289;48.572;13.378;2023-09-19T10:06:23;3.33;;;1.38;;
48487;SDS011;34289;48.572;13.378;2023-09-19T10:12:02;2.28;;;1.10;;
48487;SDS011;34289;48.572;13.378;2023-09-19T10:14:34;1.35;;;1.05;;
48487;SDS011;34289;48.572;13.378;2023-09-19T10:17:04;4.15;;;1.23;;
48487;SDS011;34289;48.572;13.378;2023-09-19T10:19:36;4.10;;;1.40;;
48487;SDS011;34289;48.572;13.378;2023-09-19T10:22:09;2.72;;;1.00;;
48487;SDS011;34289;48.572;13.378;2023-09-19T10:24:37;5.00;;;1.30;;
48487;SDS011;34289;48.572;13.378;2023-09-19T10:27:04;3.50;;;1.60;;
48487;SDS011;34289;48.572;13.378;2023-09-19T10:29:33;2.45;;;1.25;;
48487;SDS011;34289;48.572;13.378;2023-09-19T10:32:01;2.88;;;1.20;;
48487;SDS011;34289;48.572;13.378;2023-09-19T10:34:31;3.75;;;1.10;;
48487;SDS011;34289;48.572;13.378;2023-09-19T10:37:00;2.25;;;1.15;;
48487;SDS011;34289;48.572;13.378;2023-09-19T10:39:31;3.35;;;1.55;;
48487;SDS011;34289;48.572;13.378;2023-09-19T10:41:58;3.58;;;1.50;;
48487;SDS011;34289;48.572;13.378;2023-09-19T10:44:31;5.47;;;1.90;;
48487;SDS011;34289;48.572;13.378;2023-09-19T10:46:58;3.17;;;1.75;;
48487;SDS011;34289;48.572;13.378;2023-09-19T10:49:24;2.00;;;1.50;;
48487;SDS011;34289;48.572;13.378;2023-09-19T10:51:54;2.03;;;1.35;;
48487;SDS011;34289;48.572;13.378;2023-09-19T10:54:26;2.65;;;1.45;;
48487;SDS011;34289;48.572;13.378;2023-09-19T10:56:59;4.45;;;1.50;;
48487;SDS011;34289;48.572;13.378;2023-09-19T10:59:25;1.33;;;0.95;;
48487;SDS011;34289;48.572;13.378;2023-09-19T11:02:00;2.55;;;1.17;;
48487;SDS011;34289;48.572;13.378;2023-09-19T11:04:42;2.25;;;1.20;;
48487;SDS011;34289;48.572;13.378;2023-09-19T11:07:11;1.50;;;1.05;;
48487;SDS011;34289;48.572;13.378;2023-09-19T11:15:02;3.67;;;1.52;;
48487;SDS011;34289;48.572;13.378;2023-09-19T11:17:36;2.58;;;1.17;;
48487;SDS011;34289;48.572;13.378;2023-09-19T11:30:42;1.83;;;1.08;;
48487;SDS011;34289;48.572;13.378;2023-09-19T11:33:15;2.97;;;0.90;;
48487;SDS011;34289;48.572;13.378;2023-09-19T11:36:19;3.42;;;1.48;;
48487;SDS011;34289;48.572;13.378;2023-09-19T11:39:01;1.58;;;1.02;;
48487;SDS011;34289;48.572;13.378;2023-09-19T11:41:39;2.15;;;1.20;;
48487;SDS011;34289;48.572;13.378;2023-09-19T11:46:33;6.55;;;1.38;;
48487;SDS011;34289;48.572;13.378;2023-09-19T11:49:08;3.35;;;1.90;;
48487;SDS011;34289;48.572;13.378;2023-09-19T11:51:54;2.50;;;1.60;;
48487;SDS011;34289;48.572;13.378;2023-09-19T11:54:21;4.07;;;1.85;;
48487;SDS011;34289;48.572;13.378;2023-09-19T11:56:53;1.98;;;1.10;;
48487;SDS011;34289;48.572;13.378;2023-09-19T11:59:20;6.07;;;0.90;;
48487;SDS011;34289;48.572;13.378;2023-09-19T12:01:53;1.60;;;0.95;;
48487;SDS011;34289;48.572;13.378;2023-09-19T12:04:35;4.70;;;1.10;;
48487;SDS011;34289;48.572;13.378;2023-09-19T12:07:08;2.78;;;0.82;;
48487;SDS011;34289;48.572;13.378;2023-09-19T12:09:44;3.47;;;1.45;;
48487;SDS011;34289;48.572;13.378;2023-09-19T12:12:25;4.82;;;1.05;;
48487;SDS011;34289;48.572;13.378;2023-09-19T12:14:58;4.75;;;0.90;;
48487;SDS011;34289;48.572;13.378;2023-09-19T12:17:37;2.20;;;0.90;;
48487;SDS011;34289;48.572;13.378;2023-09-19T12:20:10;1.52;;;0.70;;
48487;SDS011;34289;48.572;13.378;2023-09-19T12:22:42;2.10;;;1.30;;
48487;SDS011;34289;48.572;13.378;2023-09-19T12:25:09;3.28;;;1.13;;
48487;SDS011;34289;48.572;13.378;2023-09-19T12:30:12;5.82;;;1.80;;
48487;SDS011;34289;48.572;13.378;2023-09-19T12:32:43;1.52;;;1.00;;
48487;SDS011;34289;48.572;13.378;2023-09-19T12:35:09;5.15;;;1.00;;
48487;SDS011;34289;48.572;13.378;2023-09-19T12:37:44;1.98;;;1.00;;
48487;SDS011;34289;48.572;13.378;2023-09-19T12:40:17;2.03;;;0.80;;
48487;SDS011;34289;48.572;13.378;2023-09-19T12:42:50;1.77;;;0.93;;
48487;SDS011;34289;48.572;13.378;2023-09-19T12:45:18;3.03;;;0.90;;
48487;SDS011;34289;48.572;13.378;2023-09-19T12:56:07;2.20;;;1.42;;
48487;SDS011;34289;48.572;13.378;2023-09-19T12:58:35;2.55;;;1.48;;
48487;SDS011;34289;48.572;13.378;2023-09-19T13:01:19;1.70;;;1.15;;
48487;SDS011;34289;48.572;13.378;2023-09-19T13:04:09;1.85;;;0.90;;
48487;SDS011;34289;48.572;13.378;2023-09-19T13:06:49;1.88;;;1.10;;
48487;SDS011;34289;48.572;13.378;2023-09-19T13:09:16;2.35;;;1.35;;
48487;SDS011;34289;48.572;13.378;2023-09-19T13:11:43;3.15;;;1.30;;
48487;SDS011;34289;48.572;13.378;2023-09-19T13:14:24;1.13;;;0.98;;
48487;SDS011;34289;48.572;13.378;2023-09-19T13:25:05;2.05;;;1.40;;
48487;SDS011;34289;48.572;13.378;2023-09-19T13:27:33;2.92;;;1.08;;
48487;SDS011;34289;48.572;13.378;2023-09-19T13:29:59;9.00;;;5.45;;
48487;SDS011;34289;48.572;13.378;2023-09-19T13:32:25;3.60;;;1.58;;
48487;SDS011;34289;48.572;13.378;2023-09-19T13:34:51;3.20;;;1.95;;
48487;SDS011;34289;48.572;13.378;2023-09-19T13:37:17;3.90;;;1.35;;
48487;SDS011;34289;48.572;13.378;2023-09-19T13:39:43;1.70;;;0.90;;
48487;SDS011;34289;48.572;13.378;2023-09-19T13:42:12;6.63;;;3.53;;
48487;SDS011;34289;48.572;13.378;2023-09-19T13:44:38;2.58;;;1.20;;
48487;SDS011;34289;48.572;13.378;2023-09-19T13:47:06;5.93;;;2.55;;
48487;SDS011;34289;48.572;13.378;2023-09-19T13:49:34;9.30;;;5.18;;
48487;SDS011;34289;48.572;13.378;2023-09-19T13:52:01;6.10;;;3.28;;
48487;SDS011;34289;48.572;13.378;2023-09-19T13:54:30;6.13;;;1.95;;
48487;SDS011;34289;48.572;13.378;2023-09-19T13:56:56;2.30;;;1.10;;
48487;SDS011;34289;48.572;13.378;2023-09-19T13:59:21;0.90;;;0.75;;
48487;SDS011;34289;48.572;13.378;2023-09-19T14:01:48;1.88;;;1.10;;
48487;SDS011;34289;48.572;13.378;2023-09-19T14:04:15;1.50;;;1.27;;
48487;SDS011;34289;48.572;13.378;2023-09-19T14:06:42;2.70;;;1.35;;
48487;SDS011;34289;48.572;13.378;2023-09-19T14:09:08;4.38;;;1.55;;
48487;SDS011;34289;48.572;13.378;2023-09-19T14:11:35;4.13;;;1.45;;
48487;SDS011;34289;48.572;13.378;2023-09-19T14:14:01;2.90;;;1.67;;
48487;SDS011;34289;48.572;13.378;2023-09-19T14:16:27;1.38;;;0.95;;
48487;SDS011;34289;48.572;13.378;2023-09-19T14:18:56;3.50;;;1.38;;
48487;SDS011;34289;48.572;13.378;2023-09-19T14:21:22;0.93;;;0.60;;
48487;SDS011;34289;48.572;13.378;2023-09-19T14:23:48;1.35;;;0.98;;
48487;SDS011;34289;48.572;13.378;2023-09-19T14:26:14;2.13;;;1.00;;
48487;SDS011;34289;48.572;13.378;2023-09-19T14:28:41;1.65;;;0.60;;
48487;SDS011;34289;48.572;13.378;2023-09-19T14:31:07;2.85;;;1.02;;
48487;SDS011;34289;48.572;13.378;2023-09-19T14:33:34;1.05;;;0.70;;
48487;SDS011;34289;48.572;13.378;2023-09-19T14:36:06;1.50;;;0.73;;
48487;SDS011;34289;48.572;13.378;2023-09-19T14:38:33;1.35;;;1.02;;
48487;SDS011;34289;48.572;13.378;2023-09-19T14:41:04;3.65;;;1.30;;
48487;SDS011;34289;48.572;13.378;2023-09-19T14:43:31;2.22;;;0.80;;
48487;SDS011;34289;48.572;13.378;2023-09-19T14:46:06;2.03;;;0.70;;
48487;SDS011;34289;48.572;13.378;2023-09-19T14:48:32;1.52;;;0.85;;
48487;SDS011;34289;48.572;13.378;2023-09-19T14:51:05;1.85;;;0.90;;
48487;SDS011;34289;48.572;13.378;2023-09-19T14:53:33;1.17;;;0.77;;
48487;SDS011;34289;48.572;13.378;2023-09-19T14:56:07;1.73;;;1.00;;
48487;SDS011;34289;48.572;13.378;2023-09-19T14:58:34;1.58;;;1.08;;
48487;SDS011;34289;48.572;13.378;2023-09-19T15:01:04;3.03;;;1.58;;
48487;SDS011;34289;48.572;13.378;2023-09-19T15:03:31;2.42;;;1.15;;
48487;SDS011;34289;48.572;13.378;2023-09-19T15:06:04;2.28;;;1.20;;
48487;SDS011;34289;48.572;13.378;2023-09-19T15:08:39;1.63;;;0.90;;
48487;SDS011;34289;48.572;13.378;2023-09-19T15:11:08;4.38;;;0.90;;
48487;SDS011;34289;48.572;13.378;2023-09-19T15:13:35;1.27;;;1.00;;
48487;SDS011;34289;48.572;13.378;2023-09-19T15:16:02;2.45;;;0.98;;
48487;SDS011;34289;48.572;13.378;2023-09-19T15:18:31;1.58;;;0.70;;
48487;SDS011;34289;48.572;13.378;2023-09-19T15:21:01;3.95;;;0.90;;
48487;SDS011;34289;48.572;13.378;2023-09-19T15:23:28;2.90;;;1.00;;
48487;SDS011;34289;48.572;13.378;2023-09-19T15:25:55;1.77;;;0.90;;
48487;SDS011;34289;48.572;13.378;2023-09-19T15:28:21;2.10;;;0.80;;
48487;SDS011;34289;48.572;13.378;2023-09-19T15:30:48;3.05;;;1.08;;